Flight Track Log - Related Links

Times and Time Zones

All times are in EDT time to prevent confusion due to time zone crossing. See the GJS3618 flight status page for this flight to view local times or setup timezone preferences in your user account.

Time Position Orientation Groundspeed Altitude Reporting Facility
EDT Latitude Longitude Course Direction KTS MPH feet Rate Location/Type
Sat 12:05:48 PM 39.9167 -104.6667 66° East 205 236 7,400  Level Denver TRACON
Sat 12:06:48 PM 39.9500 -104.5833 62° Northeast 268 308 9,200 1,300 Climbing Denver TRACON
Sat 12:07:48 PM 39.9500 -104.4667 90° East 331 381 10,000 622 Climbing Denver TRACON
Sat 12:09:03 PM 39.9589 -104.3197 85° East 330 380 10,600 701 Climbing Denver Center
Sat 12:10:05 PM 39.9681 -104.2031 84° East 324 373 11,600 1,403 Climbing Denver Center
Sat 12:11:00 PM 40.0132 -103.7770 66° East  Level FlightAware
Sat 12:11:07 PM 39.9783 -104.0722 84° East 338 389 13,500  Level Denver Center
Sat 12:12:09 PM 39.9939 -103.9439 81° East 357 411 15,800 2,129 Climbing Denver Center
Sat 12:13:11 PM 40.0144 -103.8139 78° East 369 425 17,900 1,984 Climbing Denver Center
Sat 12:14:13 PM 40.0356 -103.6772 79° East 370 426 19,900 1,790 Climbing Denver Center
Sat 12:15:15 PM 40.0600 -103.5361 77° East 391 450 21,600 1,597 Climbing Denver Center
Sat 12:16:17 PM 40.0833 -103.3872 78° East 412 474 23,200 1,512 Climbing Denver Center
Sat 12:17:18 PM 40.1086 -103.2344 78° East 425 489 24,700 1,415 Climbing Denver Center
Sat 12:18:20 PM 40.1381 -103.0489 78° East 445 512 26,100 1,210 Climbing Denver Center
Sat 12:19:22 PM 40.1650 -102.8833 78° East 458 527 27,200 1,065 Climbing Denver Center
Sat 12:20:24 PM 40.1953 -102.7150 77° East 470 541 28,300 1,016 Climbing Denver Center
Sat 12:21:26 PM 40.2450 -102.5469 69° East 479 551 29,300 919 Climbing Denver Center
Sat 12:22:28 PM 40.2794 -102.3817 75° East 492 566 30,200 871 Climbing Denver Center
Sat 12:23:30 PM 40.3164 -102.1864 76° East 496 571 31,100 871 Climbing Denver Center
Sat 12:24:32 PM 40.3481 -102.0172 76° East 500 575 32,000 1,065 Climbing Denver Center
Sat 12:25:34 PM 40.3867 -101.8211 75° East 499 574 33,300 1,113 Climbing Denver Center
Sat 12:26:36 PM 40.4175 -101.6553 76° East 492 566 34,300 823 Climbing Denver Center
Sat 12:27:38 PM 40.4531 -101.4622 76° East 489 563 35,000 339 Climbing Denver Center
Sat 12:28:40 PM 40.4836 -101.2928 77° East 497 572 35,000  Level Denver Center
Sat 12:29:42 PM 40.5211 -101.0992 76° East 492 566 35,000  Level Denver Center
Sat 12:30:44 PM 40.5667 -100.9408 69° East 488 562 35,000  Level Denver Center
Sat 12:31:46 PM 40.6175 -100.7583 70° East 481 554 35,000  Level Denver Center
Sat 12:32:48 PM 40.6611 -100.6042 70° East 478 550 35,000  Level Denver Center
Sat 12:33:50 PM 40.7117 -100.4228 70° East 478 550 35,000  Level Denver Center
Sat 12:34:52 PM 40.7547 -100.2658 70° East 477 549 35,000  Level Denver Center
Sat 12:35:54 PM 40.8036 -100.0853 70° East 471 542 35,000  Level Denver Center
Sat 12:36:56 PM 40.8472 -99.9264 70° East 479 551 35,000  Level Denver Center
Sat 12:37:58 PM 40.8931 -99.7586 70° East 482 555 35,000  Level Denver Center
Sat 12:39:00 PM 40.9378 -99.5936 70° East 479 551 35,000  Level Denver Center
Sat 12:40:02 PM 40.9817 -99.4297 70° East 475 547 35,000  Level Denver Center
Sat 12:41:04 PM 41.0336 -99.2344 71° East 469 540 35,000  Level Denver Center
Sat 12:42:10 PM 41.0767 -99.0714 71° East 465 535 35,000  Level Minneapolis Center
Sat 12:43:12 PM 41.1183 -98.9100 71° East 464 534 35,000  Level Minneapolis Center
Sat 12:44:13 PM 41.1597 -98.7486 71° East 462 532 35,000  Level Minneapolis Center
Sat 12:45:15 PM 41.2042 -98.5831 70° East 471 542 35,000  Level Minneapolis Center
Sat 12:46:17 PM 41.2483 -98.4078 71° East 464 534 35,000  Level Minneapolis Center
Sat 12:47:18 PM 41.2906 -98.2442 71° East 466 536 35,000  Level Minneapolis Center
Sat 12:48:20 PM 41.3381 -98.0550 71° East 479 551 35,000  Level Minneapolis Center
Sat 12:49:22 PM 41.3792 -97.8864 72° East 481 554 35,000  Level Minneapolis Center
Sat 12:50:23 PM 41.4219 -97.7186 71° East 479 551 35,000  Level Minneapolis Center
Sat 12:51:25 PM 41.4642 -97.5508 71° East 478 550 35,000  Level Minneapolis Center
Sat 12:52:27 PM 41.5053 -97.3808 72° East 480 552 35,000  Level Minneapolis Center
Sat 12:53:28 PM 41.5472 -97.2081 72° East 486 559 35,000  Level Minneapolis Center
Sat 12:54:30 PM 41.5886 -97.0361 72° East 487 560 35,000  Level Minneapolis Center
Sat 12:55:32 PM 41.6378 -96.8281 72° East 488 562 35,000  Level Minneapolis Center
Sat 12:56:33 PM 41.6800 -96.6575 72° East 483 556 35,000  Level Minneapolis Center
Sat 12:57:35 PM 41.7189 -96.4881 73° East 477 549 35,000  Level Minneapolis Center
Sat 12:58:37 PM 41.7581 -96.3219 72° East 469 540 35,000  Level Minneapolis Center
Sat 12:59:38 PM 41.7967 -96.1536 73° East 467 537 35,000  Level Minneapolis Center
Sat 01:00:40 PM 41.8350 -95.9889 73° East 463 533 35,000  Level Minneapolis Center
Sat 01:01:42 PM 41.8728 -95.8208 73° East 466 536 35,000  Level Minneapolis Center
Sat 01:02:44 PM 41.9122 -95.6508 73° East 473 544 35,000  Level Minneapolis Center
Sat 01:03:45 PM 41.9500 -95.4808 73° East 469 540 35,000  Level Minneapolis Center
Sat 01:04:59 PM 41.9936 -95.2861 73° East 459 528 35,000  Level Minneapolis Center
Sat 01:06:01 PM 42.0369 -95.0900 73° East 457 526 35,000  Level Minneapolis Center
Sat 01:07:03 PM 42.0717 -94.9281 74° East 452 520 35,000  Level Minneapolis Center
Sat 01:08:04 PM 42.1069 -94.7656 74° East 451 519 35,000  Level Minneapolis Center
Sat 01:09:06 PM 42.1417 -94.6039 74° East 450 518 35,000  Level Minneapolis Center
Sat 01:10:08 PM 42.1769 -94.4444 73° East 447 514 35,000  Level Minneapolis Center
Sat 01:11:09 PM 42.2103 -94.2825 74° East 448 516 35,000  Level Minneapolis Center
Sat 01:12:11 PM 42.2478 -94.1092 74° East 449 517 35,000  Level Minneapolis Center
Sat 01:13:12 PM 42.2811 -93.9475 74° East 451 519 35,000  Level Minneapolis Center
Sat 01:14:14 PM 42.3147 -93.7825 75° East 457 526 35,000  Level Minneapolis Center
Sat 01:15:16 PM 42.3497 -93.6189 74° East 456 525 35,000  Level Minneapolis Center
Sat 01:16:17 PM 42.3856 -93.4533 74° East 460 529 35,000  Level Minneapolis Center
Sat 01:17:19 PM 42.4242 -93.2531 75° East 462 532 35,000  Level Minneapolis Center
Sat 01:18:20 PM 42.4578 -93.0853 75° East 464 534 35,000  Level Minneapolis Center
Sat 01:19:22 PM 42.4919 -92.9181 74° East 465 535 35,000  Level Minneapolis Center
Sat 01:20:23 PM 42.5242 -92.7492 75° East 467 537 35,000  Level Minneapolis Center
Sat 01:21:25 PM 42.5581 -92.5806 75° East 468 539 35,000 -48 Level Minneapolis Center
Sat 01:22:27 PM 42.5981 -92.3753 75° East 471 542 34,900 -537 Descending Minneapolis Center
Sat 01:23:28 PM 42.6308 -92.2053 75° East 470 541 33,900 -927 Descending Minneapolis Center
Sat 01:24:30 PM 42.6628 -92.0353 76° East 469 540 33,000 -1,122 Descending Minneapolis Center
Sat 01:25:31 PM 42.6956 -91.8619 76° East 473 544 31,600 -1,415 Descending Minneapolis Center
Sat 01:26:33 PM 42.7325 -91.6653 76° East 490 564 30,100 -1,805 Descending Minneapolis Center
Sat 01:27:34 PM 42.7669 -91.4842 75° East 475 547 27,900 -1,854 Descending Minneapolis Center
Sat 01:28:36 PM 42.7947 -91.3269 76° East 464 534 26,300 -1,560 Descending Minneapolis Center
Sat 01:29:14 PM 42.8131 -91.2300 76° East 453 521 25,300 -1,879 Descending Chicago Center
Sat 01:30:15 PM 42.8425 -91.0697 76° East 442 509 23,200 -2,098 Descending Chicago Center
Sat 01:31:17 PM 42.8717 -90.9072 76° East 444 511 21,000 -2,323 Descending Chicago Center
Sat 01:32:19 PM 42.9053 -90.7194 76° East 430 495 18,400 -2,323 Descending Chicago Center
Sat 01:33:21 PM 42.9319 -90.5656 77° East 422 486 16,200 -2,129 Descending Chicago Center
Sat 01:34:23 PM 42.9589 -90.4175 76° East 407 468 14,000 -2,146 Descending Chicago Center
Sat 01:35:24 PM 42.9839 -90.2689 77° East 405 466 11,800 -1,366 Descending Chicago Center
Sat 01:36:26 PM 43.0094 -90.1269 76° East 393 452 11,200 -968 Descending Chicago Center
Sat 01:37:28 PM 43.0336 -89.9731 78° East 353 406 9,800 -1,500 Descending Chicago Center
Sat 01:38:30 PM 43.0553 -89.8492 76° East 346 398 8,100 -1,317 Descending Chicago Center
Sat 01:39:31 PM 43.0794 -89.7306 74° East 329 379 7,100 -1,317 Descending Chicago Center
Sat 01:40:33 PM 43.1075 -89.6247 70° East 304 350 5,400 -1,597 Descending Chicago Center
Sat 01:41:35 PM 43.1342 -89.5144 72° East 303 349 3,800 -1,258 Descending Chicago Center
Sat 01:42:37 PM 43.1978 -89.4200 47° Northeast 287 330 2,800 -581 Descending Chicago Center
Sat 01:43:39 PM 43.2394 -89.3753 38° Northeast 234 269 2,600 -195 Descending Chicago Center
Sat 01:44:40 PM 43.2147 -89.3392 133° Southeast 166 191 2,400 -390 Descending Chicago Center
Sat 01:45:42 PM 43.1844 -89.3414 183° South 127 146 1,800 -484 Descending Chicago Center
Sat 01:46:44 PM 43.1533 -89.3417 180° South 121 139 1,400 -387 Descending Chicago Center

Login

Don't have an account? Register now (free) for customized features, flight alerts, and more!